Time;durP1;ratioP1;P1;durP2;ratioP2;P2;SDS_P1;SDS_P2;PMS_P1;PMS_P2;Temp;Humidity;BMP_temperature;BMP_pressure;BME280_temperature;BME280_humidity;BME280_pressure;Samples;Min_cycle;Max_cycle;Signal;HPM_P1;HPM_P2
2022/06/07 00:00:17;;;;;;;9.10;6.82;;;;;;;19.41;nan;95035.38;5075931;28;20212;-70
2022/06/07 00:02:44;;;;;;;6.82;6.32;;;;;;;19.12;nan;95039.91;5074692;28;20288;-71
2022/06/07 00:05:11;;;;;;;10.77;6.68;;;;;;;19.17;nan;95033.53;5075698;28;20197;-72
2022/06/07 00:07:40;;;;;;;6.85;6.38;;;;;;;19.34;nan;95043.50;5075028;28;20217;-70
2022/06/07 00:10:08;;;;;;;7.00;6.10;;;;;;;19.46;nan;95047.00;5075177;28;20301;-71
2022/06/07 00:12:34;;;;;;;7.88;7.13;;;;;;;19.60;nan;95046.91;5075014;28;20202;-71
2022/06/07 00:15:01;;;;;;;13.50;6.45;;;;;;;19.65;nan;95044.84;5076060;28;20208;-71
2022/06/07 00:17:28;;;;;;;9.15;6.75;;;;;;;19.58;nan;95048.75;5075273;28;21210;-72
2022/06/07 00:19:55;;;;;;;6.50;6.10;;;;;;;19.59;nan;95047.84;5075162;28;20212;-70
2022/06/07 00:22:22;;;;;;;7.95;6.63;;;;;;;19.79;nan;95050.81;5075479;28;20210;-70
2022/06/07 00:24:50;;;;;;;12.88;8.90;;;;;;;19.62;nan;95052.78;5074461;28;20278;-70
2022/06/07 00:27:17;;;;;;;12.65;8.93;;;;;;;19.93;nan;95050.66;5075597;28;20200;-70
2022/06/07 00:29:46;;;;;;;12.85;10.02;;;;;;;20.26;nan;95043.09;5075085;28;20293;-70
2022/06/07 00:32:14;;;;;;;6.88;6.07;;;;;;;20.54;nan;95044.53;5075901;28;20201;-69
2022/06/07 00:34:41;;;;;;;7.47;6.75;;;;;;;20.53;nan;95042.06;5074770;28;20210;-69
2022/06/07 00:37:08;;;;;;;6.10;5.50;;;;;;;20.26;nan;95040.53;5075737;28;20198;-70
2022/06/07 00:39:35;;;;;;;5.82;4.97;;;;;;;19.85;nan;95042.63;5074569;28;20233;-69
2022/06/07 00:42:04;;;;;;;7.63;5.13;;;;;;;19.63;nan;95038.97;5075833;28;20197;-70
2022/06/07 00:44:38;;;;;;;37.10;22.85;;;;;;;19.91;nan;95042.19;5074976;28;20201;-71
2022/06/07 00:47:09;;;;;;;19.40;15.93;;;;;;;20.19;nan;95033.31;5075557;28;20213;-70
2022/06/07 00:49:40;;;;;;;11.13;7.03;;;;;;;20.45;nan;95041.81;5075242;28;20193;-70
2022/06/07 00:52:07;;;;;;;8.70;7.03;;;;;;;20.70;nan;95050.22;5075209;28;20205;-71
2022/06/07 00:54:35;;;;;;;8.60;7.78;;;;;;;20.61;nan;95050.06;5074702;28;20210;-71
2022/06/07 00:57:04;;;;;;;6.95;5.75;;;;;;;20.73;nan;95049.19;5077856;28;20202;-70
2022/06/07 00:59:32;;;;;;;7.22;6.45;;;;;;;20.88;nan;95048.03;5078629;28;20690;-70
2022/06/07 01:01:59;;;;;;;17.65;6.68;;;;;;;20.76;nan;95053.31;5078644;28;20290;-70
2022/06/07 01:04:27;;;;;;;6.97;6.25;;;;;;;20.47;nan;95042.50;5078170;28;20205;-70
2022/06/07 01:12:24;;;;;;;5.82;5.43;;;;;;;20.09;nan;95046.03;5078443;28;20243;-70
2022/06/07 01:14:51;;;;;;;14.98;10.32;;;;;;;20.24;nan;95052.72;5077618;28;20205;-69
2022/06/07 01:17:19;;;;;;;6.32;5.78;;;;;;;20.37;nan;95047.50;5078284;28;20194;-69
2022/06/07 01:19:46;;;;;;;9.93;6.47;;;;;;;20.53;nan;95049.81;5077527;28;20236;-70
2022/06/07 01:22:15;;;;;;;7.18;6.38;;;;;;;20.55;nan;95060.84;5078915;28;20267;-69
2022/06/07 01:24:43;;;;;;;11.18;7.70;;;;;;;20.65;nan;95044.56;5078003;28;20229;-70
2022/06/07 01:27:10;;;;;;;6.30;5.70;;;;;;;20.82;nan;95047.66;5077039;28;20967;-72
2022/06/07 01:29:39;;;;;;;7.80;6.75;;;;;;;20.76;nan;95051.53;5077365;28;20198;-71
2022/06/07 01:32:06;;;;;;;7.05;6.22;;;;;;;20.69;nan;95045.16;5078348;28;20190;-70
2022/06/07 01:34:33;;;;;;;7.22;6.45;;;;;;;20.59;nan;95047.59;5078460;28;20624;-69
2022/06/07 01:37:01;;;;;;;6.20;5.60;;;;;;;20.57;nan;95054.63;5078195;28;20444;-70
2022/06/07 01:42:15;;;;;;;13.70;5.97;;;;;;;20.48;nan;95054.50;5078598;28;20688;-70
2022/06/07 01:44:44;;;;;;;5.97;5.57;;;;;;;20.57;nan;95053.81;5077825;28;20204;-70
2022/06/07 01:47:13;;;;;;;6.13;5.72;;;;;;;20.41;nan;95043.78;5078169;28;20206;-69
2022/06/07 01:49:41;;;;;;;13.25;6.93;;;;;;;19.74;nan;95037.41;5077297;28;20194;-70
2022/06/07 01:52:09;;;;;;;7.13;6.28;;;;;;;19.02;nan;95042.31;5077965;28;20684;-70
2022/06/07 01:54:38;;;;;;;6.55;6.00;;;;;;;19.25;nan;95038.19;5077433;28;20247;-71
2022/06/07 01:57:06;;;;;;;7.68;5.78;;;;;;;19.42;nan;95037.84;5077955;28;20689;-70
2022/06/07 01:59:33;;;;;;;8.40;6.18;;;;;;;19.36;nan;95028.78;5076871;28;20221;-70
2022/06/07 02:01:59;;;;;;;8.05;5.70;;;;;;;19.57;nan;95030.81;5078230;28;20205;-70
2022/06/07 02:04:27;;;;;;;6.70;6.20;;;;;;;19.75;nan;95029.56;5077946;28;20217;-70
2022/06/07 02:06:54;;;;;;;7.97;6.45;;;;;;;19.01;nan;95032.94;5077180;28;20274;-70
2022/06/07 02:09:21;;;;;;;7.07;6.18;;;;;;;19.21;nan;95034.97;5077006;28;20198;-70
2022/06/07 02:11:49;;;;;;;6.95;6.13;;;;;;;19.06;nan;95035.16;5077565;28;20199;-70
2022/06/07 02:14:16;;;;;;;10.93;6.00;;;;;;;18.50;nan;95032.00;5078343;28;20206;-71
2022/06/07 02:16:43;;;;;;;9.75;6.68;;;;;;;18.09;nan;95032.91;5077373;28;20201;-70
2022/06/07 02:19:10;;;;;;;6.70;6.07;;;;;;;17.95;nan;95041.50;5077521;28;20225;-69
2022/06/07 02:21:39;;;;;;;6.07;5.50;;;;;;;17.94;nan;95029.56;5077341;28;20205;-70
2022/06/07 02:24:07;;;;;;;6.30;5.90;;;;;;;18.33;nan;95036.47;5077757;28;20190;-70
2022/06/07 02:26:39;;;;;;;9.13;6.07;;;;;;;18.68;nan;95035.97;5077327;28;20229;-71
2022/06/07 02:29:09;;;;;;;8.75;5.80;;;;;;;18.96;nan;95040.13;5077225;28;20212;-70
2022/06/07 02:31:38;;;;;;;8.70;6.55;;;;;;;19.10;nan;95047.75;5077091;28;20209;-71
2022/06/07 02:34:06;;;;;;;7.30;6.60;;;;;;;19.02;nan;95037.97;5077109;28;20194;-71
2022/06/07 02:36:34;;;;;;;6.93;6.22;;;;;;;19.40;nan;95044.03;5076856;28;20229;-70
2022/06/07 02:39:02;;;;;;;7.15;6.20;;;;;;;19.62;nan;95042.47;5076619;28;20325;-70
2022/06/07 02:41:32;;;;;;;8.13;5.78;;;;;;;19.75;nan;95045.03;5077000;28;20198;-70
2022/06/07 02:43:58;;;;;;;6.57;5.90;;;;;;;19.84;nan;95040.97;5077450;28;20291;-71
2022/06/07 02:46:27;;;;;;;9.40;7.22;;;;;;;19.88;nan;95040.66;5075953;28;20205;-69
2022/06/07 02:48:53;;;;;;;9.98;5.90;;;;;;;19.96;nan;95038.38;5076476;28;21249;-70
2022/06/07 02:51:21;;;;;;;6.30;5.75;;;;;;;19.92;nan;95036.09;5076844;28;20278;-70
2022/06/07 02:53:48;;;;;;;6.32;5.20;;;;;;;19.99;nan;95051.06;5076957;28;20738;-70
2022/06/07 02:56:15;;;;;;;5.53;4.93;;;;;;;20.14;nan;95051.72;5076831;28;20319;-71
2022/06/07 02:58:42;;;;;;;6.43;5.60;;;;;;;20.05;nan;95052.34;5076266;28;20229;-69
2022/06/07 03:01:08;;;;;;;6.50;5.13;;;;;;;20.09;nan;95058.13;5075270;28;20229;-70
2022/06/07 03:03:38;;;;;;;6.72;5.60;;;;;;;20.28;nan;95056.72;5074639;28;21499;-70
2022/06/07 03:06:06;;;;;;;5.50;5.10;;;;;;;20.32;nan;95065.88;5074099;28;20202;-69
2022/06/07 03:08:32;;;;;;;6.55;5.85;;;;;;;20.25;nan;95069.84;5074852;28;20313;-69
2022/06/07 03:10:59;;;;;;;6.18;5.57;;;;;;;20.32;nan;95071.03;5074342;28;20255;-69
2022/06/07 03:13:26;;;;;;;6.72;6.30;;;;;;;20.16;nan;95074.81;5074728;28;20905;-69
2022/06/07 03:15:53;;;;;;;6.90;6.28;;;;;;;20.06;nan;95061.75;5073560;28;20204;-69
2022/06/07 03:18:20;;;;;;;12.32;7.15;;;;;;;19.96;nan;95064.16;5074035;28;20205;-69
2022/06/07 03:20:49;;;;;;;7.45;6.70;;;;;;;19.62;nan;95075.16;5074399;28;20206;-69
2022/06/07 03:23:16;;;;;;;9.90;6.82;;;;;;;19.43;nan;95080.72;5074667;28;20700;-69
2022/06/07 03:25:43;;;;;;;8.43;6.82;;;;;;;19.47;nan;95078.78;5074619;28;20229;-69
2022/06/07 03:28:11;;;;;;;11.05;8.10;;;;;;;19.03;nan;95080.84;5074256;28;20201;-69
2022/06/07 03:30:39;;;;;;;15.45;8.00;;;;;;;18.58;nan;95081.22;5075217;28;20206;-70
2022/06/07 03:33:06;;;;;;;8.13;7.47;;;;;;;18.43;nan;95072.75;5076535;28;20578;-69
2022/06/07 03:35:33;;;;;;;13.90;8.07;;;;;;;18.29;nan;95075.38;5075913;28;20205;-69
2022/06/07 03:38:02;;;;;;;10.55;8.32;;;;;;;18.46;nan;95082.03;5075637;28;20267;-69
2022/06/07 03:40:44;;;;;;;8.75;8.13;;;;;;;18.84;nan;95088.09;5075283;28;20628;-69
2022/06/07 03:43:12;;;;;;;9.43;7.85;;;;;;;18.84;nan;95082.94;5075730;28;20217;-71
2022/06/07 03:45:39;;;;;;;12.20;8.20;;;;;;;18.96;nan;95084.75;5075224;28;20681;-69
2022/06/07 03:48:07;;;;;;;17.67;9.75;;;;;;;19.42;nan;95093.72;5075509;28;20194;-70
2022/06/07 03:50:33;;;;;;;8.65;7.85;;;;;;;19.49;nan;95097.53;5075664;28;20250;-69
2022/06/07 03:53:02;;;;;;;9.48;7.88;;;;;;;19.57;nan;95087.53;5075510;28;20735;-70
2022/06/07 03:55:28;;;;;;;12.05;7.85;;;;;;;19.62;nan;95094.03;5075346;28;20201;-70
2022/06/07 03:57:56;;;;;;;9.23;8.30;;;;;;;19.77;nan;95099.09;5075525;28;20212;-71
2022/06/07 04:00:23;;;;;;;11.80;8.52;;;;;;;19.91;nan;95094.59;5074766;28;20324;-71
2022/06/07 04:02:50;;;;;;;9.55;8.75;;;;;;;20.13;nan;95090.50;5075524;28;20205;-70
2022/06/07 04:05:17;;;;;;;12.05;10.90;;;;;;;20.35;nan;95090.63;5075285;28;20205;-70
2022/06/07 04:10:29;;;;;;;18.10;15.02;;;;;;;20.32;nan;95081.34;5075073;28;20841;-70
2022/06/07 04:12:56;;;;;;;13.15;11.05;;;;;;;20.43;nan;95087.56;5075576;28;20243;-70
2022/06/07 04:15:23;;;;;;;10.98;9.57;;;;;;;20.47;nan;95087.22;5074954;28;20205;-72
2022/06/07 04:17:50;;;;;;;12.95;9.55;;;;;;;20.60;nan;95097.47;5075443;28;20213;-70
2022/06/07 04:20:17;;;;;;;14.00;9.43;;;;;;;20.47;nan;95101.88;5073952;28;20279;-70
2022/06/07 04:22:43;;;;;;;20.02;12.93;;;;;;;20.34;nan;95100.13;5075527;28;20239;-69
2022/06/07 04:25:11;;;;;;;28.05;16.13;;;;;;;20.57;nan;95102.84;5074921;28;20229;-71
2022/06/07 04:27:40;;;;;;;10.57;9.50;;;;;;;20.84;nan;95102.63;5075196;28;20208;-70
2022/06/07 04:30:08;;;;;;;11.00;9.35;;;;;;;20.83;nan;95096.63;5074557;28;20206;-72
2022/06/07 04:32:35;;;;;;;11.48;9.23;;;;;;;20.92;nan;95095.97;5079023;28;20209;-73
2022/06/07 04:35:03;;;;;;;12.30;9.88;;;;;;;20.81;nan;95097.66;5078888;28;20201;-72
2022/06/07 04:37:30;;;;;;;10.88;8.50;;;;;;;20.73;nan;95090.50;5079347;28;20202;-71
2022/06/07 04:39:56;;;;;;;10.43;9.40;;;;;;;20.85;nan;95094.75;5078332;28;20704;-71
2022/06/07 04:42:23;;;;;;;10.75;9.13;;;;;;;21.00;nan;95093.66;5079214;28;20193;-70
2022/06/07 04:45:09;;;;;;;15.27;9.18;;;;;;;20.92;nan;95095.97;5078764;28;21486;-71
2022/06/07 04:47:36;;;;;;;13.63;9.90;;;;;;;21.04;nan;95094.22;5078540;28;20668;-71
2022/06/07 04:50:04;;;;;;;11.70;10.13;;;;;;;20.84;nan;95100.84;5078088;28;20202;-71
2022/06/07 04:52:31;;;;;;;13.63;9.73;;;;;;;21.09;nan;95102.44;5078991;28;20247;-70
2022/06/07 04:54:58;;;;;;;22.40;12.40;;;;;;;21.11;nan;95104.94;5078307;28;20227;-71
2022/06/07 04:57:24;;;;;;;10.32;8.85;;;;;;;20.95;nan;95107.84;5078700;28;20212;-71
2022/06/07 04:59:51;;;;;;;15.18;9.10;;;;;;;20.90;nan;95105.56;5077667;28;21363;-70
2022/06/07 05:02:19;;;;;;;11.50;8.02;;;;;;;20.93;nan;95117.44;5078669;28;20270;-71
2022/06/07 05:04:46;;;;;;;8.68;8.00;;;;;;;20.89;nan;95106.50;5078327;28;20689;-71
2022/06/07 05:07:14;;;;;;;8.80;8.10;;;;;;;20.75;nan;95109.28;5078408;28;20220;-71
2022/06/07 05:09:41;;;;;;;9.45;8.55;;;;;;;20.76;nan;95110.13;5077690;28;20202;-71
2022/06/07 05:12:09;;;;;;;10.98;7.85;;;;;;;20.55;nan;95115.88;5078623;28;20198;-71
2022/06/07 05:14:36;;;;;;;22.73;9.45;;;;;;;20.64;nan;95119.56;5078086;28;20358;-71
2022/06/07 05:17:03;;;;;;;8.60;7.38;;;;;;;20.83;nan;95112.13;5079267;28;20255;-71
2022/06/07 05:19:33;;;;;;;7.80;6.63;;;;;;;21.03;nan;95110.69;5077772;28;20236;-71
2022/06/07 05:22:01;;;;;;;9.73;7.07;;;;;;;21.18;nan;95112.13;5078499;28;20204;-71
2022/06/07 05:24:28;;;;;;;9.75;7.55;;;;;;;21.24;nan;95116.06;5077767;28;20556;-71
2022/06/07 05:26:58;;;;;;;7.40;6.68;;;;;;;21.33;nan;95116.16;5078157;28;21334;-70
2022/06/07 05:29:28;;;;;;;9.52;7.50;;;;;;;21.35;nan;95118.63;5077869;28;20639;-71
2022/06/07 05:31:55;;;;;;;6.97;6.18;;;;;;;21.36;nan;95120.28;5078433;28;20198;-72
2022/06/07 05:34:22;;;;;;;8.55;7.85;;;;;;;21.89;nan;95112.78;5078156;28;20206;-70
2022/06/07 05:36:50;;;;;;;18.75;9.23;;;;;;;22.31;nan;95124.19;5078555;28;20579;-70
2022/06/07 05:39:22;;;;;;;9.55;8.55;;;;;;;22.34;nan;95124.75;5077086;28;20279;-71
2022/06/07 05:41:49;;;;;;;13.02;9.77;;;;;;;22.11;nan;95128.34;5077730;28;20846;-72
2022/06/07 05:44:16;;;;;;;11.90;10.27;;;;;;;21.50;nan;95127.03;5077501;28;21170;-70
2022/06/07 05:46:43;;;;;;;19.00;10.48;;;;;;;21.47;nan;95128.06;5078293;28;20681;-71
2022/06/07 05:49:11;;;;;;;28.10;14.68;;;;;;;21.51;nan;95119.16;5076408;28;20628;-71
2022/06/07 05:51:38;;;;;;;36.28;14.68;;;;;;;21.27;nan;95111.47;5077994;28;20281;-71
2022/06/07 05:54:07;;;;;;;19.27;12.27;;;;;;;21.64;nan;95127.59;5076891;28;20194;-71
2022/06/07 05:56:35;;;;;;;29.27;15.20;;;;;;;21.70;nan;95132.31;5078298;28;20198;-71
2022/06/07 05:59:02;;;;;;;17.13;11.77;;;;;;;21.62;nan;95119.13;5077035;28;20202;-71
2022/06/07 06:01:28;;;;;;;22.08;12.18;;;;;;;21.97;nan;95124.22;5077805;28;20198;-71
2022/06/07 06:03:55;;;;;;;47.17;20.88;;;;;;;22.11;nan;95106.81;5077306;28;20205;-72
2022/06/07 06:06:23;;;;;;;23.70;15.55;;;;;;;22.68;nan;95116.91;5077757;28;20677;-71
2022/06/07 06:11:35;;;;;;;20.02;13.05;;;;;;;23.31;nan;95115.22;5049156;28;20229;-72
2022/06/07 06:14:02;;;;;;;23.77;13.90;;;;;;;23.27;nan;95124.19;5076901;28;20202;-71
2022/06/07 06:16:29;;;;;;;18.80;13.60;;;;;;;23.45;nan;95112.31;5077600;28;20220;-71
2022/06/07 06:18:58;;;;;;;15.85;13.20;;;;;;;24.31;nan;95124.03;5076414;28;20198;-71
2022/06/07 06:21:27;;;;;;;18.40;15.90;;;;;;;25.83;nan;95112.09;5077342;28;21527;-70
2022/06/07 06:23:57;;;;;;;18.60;15.18;;;;;;;26.80;nan;95105.38;5076883;28;20209;-70
2022/06/07 06:26:23;;;;;;;19.88;14.73;;;;;;;26.46;nan;95105.25;5077249;28;20230;-70
2022/06/07 06:28:52;;;;;;;23.70;15.13;;;;;;;26.26;nan;95099.25;5076585;28;20259;-72
2022/06/07 06:31:19;;;;;;;23.17;14.23;;;;;;;25.41;nan;95092.47;5077708;28;20189;-70
2022/06/07 06:33:48;;;;;;;24.90;15.18;;;;;;;24.91;nan;95106.59;5076206;28;20198;-71
2022/06/07 06:36:18;;;;;;;26.52;16.77;;;;;;;24.66;nan;95101.00;5077052;28;20206;-70
2022/06/07 06:38:45;;;;;;;23.55;15.20;;;;;;;25.35;nan;95098.22;5076491;28;20305;-71
2022/06/07 06:41:14;;;;;;;25.48;15.88;;;;;;;25.68;nan;95093.53;5076899;28;20316;-71
2022/06/07 06:43:42;;;;;;;21.30;15.77;;;;;;;27.17;nan;95091.41;5076686;28;20208;-70
2022/06/07 06:46:13;;;;;;;25.15;14.77;;;;;;;28.04;nan;95086.88;5075658;28;20205;-70
2022/06/07 06:48:41;;;;;;;22.10;15.10;;;;;;;28.17;nan;95098.69;5076352;28;20666;-69
2022/06/07 06:51:11;;;;;;;16.00;14.30;;;;;;;27.21;nan;95092.75;5076800;28;20193;-69
2022/06/07 06:53:38;;;;;;;21.85;14.30;;;;;;;26.74;nan;95088.56;5075555;28;20197;-71
2022/06/07 06:56:06;;;;;;;19.20;13.82;;;;;;;26.49;nan;95083.25;5076222;28;20775;-70
2022/06/07 06:58:33;;;;;;;20.83;14.35;;;;;;;27.18;nan;95080.81;5075052;28;20338;-70
2022/06/07 07:01:01;;;;;;;16.58;14.07;;;;;;;27.57;nan;95077.78;5076521;28;20696;-70
2022/06/07 07:03:30;;;;;;;17.67;14.95;;;;;;;27.50;nan;95074.97;5076278;28;20209;-70
2022/06/07 07:05:57;;;;;;;25.45;17.40;;;;;;;27.72;nan;95069.25;5076271;28;20239;-70
2022/06/07 07:08:25;;;;;;;366.48;259.58;;;;;;;27.91;nan;95083.06;5076228;28;20212;-71
2022/06/07 07:11:02;;;;;;;35.03;24.95;;;;;;;27.02;nan;95078.06;5076553;28;20310;-71
2022/06/07 07:13:30;;;;;;;22.85;14.82;;;;;;;26.49;nan;95072.81;5076071;28;20210;-71
2022/06/07 07:15:57;;;;;;;21.45;14.00;;;;;;;26.25;nan;95068.97;5075703;28;20216;-71
2022/06/07 07:18:24;;;;;;;17.25;13.60;;;;;;;26.31;nan;95071.03;5074851;28;20206;-71
2022/06/07 07:20:52;;;;;;;20.52;16.13;;;;;;;26.41;nan;95070.97;5078041;28;20623;-70
2022/06/07 07:23:19;;;;;;;20.77;17.77;;;;;;;26.69;nan;95069.94;5078637;28;20267;-71
2022/06/07 07:25:46;;;;;;;17.83;14.38;;;;;;;26.92;nan;95072.09;5078416;28;20352;-72
2022/06/07 07:28:13;;;;;;;18.55;14.35;;;;;;;26.31;nan;95065.81;5078863;28;20209;-72
2022/06/07 07:30:40;;;;;;;16.48;14.15;;;;;;;25.60;nan;95060.34;5078147;28;20209;-70
2022/06/07 07:33:07;;;;;;;16.90;13.20;;;;;;;25.76;nan;95064.97;5078825;28;20206;-71
2022/06/07 07:35:34;;;;;;;23.77;15.63;;;;;;;26.12;nan;95057.28;5079466;28;20576;-72
2022/06/07 07:38:03;;;;;;;25.98;16.00;;;;;;;26.16;nan;95056.03;5078034;28;20728;-72
2022/06/07 07:40:30;;;;;;;19.08;13.75;;;;;;;26.20;nan;95058.19;5078552;28;20229;-71
2022/06/07 07:42:57;;;;;;;18.40;14.40;;;;;;;26.63;nan;95047.06;5079088;28;20228;-70
2022/06/07 07:45:26;;;;;;;15.43;13.82;;;;;;;26.68;nan;95049.25;5078402;28;20202;-69
2022/06/07 07:47:53;;;;;;;15.10;13.35;;;;;;;26.58;nan;95043.28;5078627;28;20902;-70
2022/06/07 07:50:20;;;;;;;25.70;13.35;;;;;;;26.31;nan;95039.75;5078102;28;20233;-70
2022/06/07 07:52:47;;;;;;;18.90;13.85;;;;;;;25.83;nan;95039.19;5078717;28;20201;-72
2022/06/07 07:55:15;;;;;;;20.92;14.13;;;;;;;26.04;nan;95034.56;5077960;28;20733;-72
2022/06/07 07:57:42;;;;;;;14.45;12.18;;;;;;;26.27;nan;95021.94;5078779;28;20209;-72
2022/06/07 08:00:10;;;;;;;13.80;12.27;;;;;;;26.46;nan;95031.44;5077739;28;20329;-71
2022/06/07 08:02:37;;;;;;;12.75;11.45;;;;;;;26.89;nan;95023.66;5078623;28;20209;-72
2022/06/07 08:05:04;;;;;;;19.13;12.40;;;;;;;27.04;nan;95027.38;5077882;28;20212;-72
2022/06/07 08:07:32;;;;;;;14.80;11.45;;;;;;;27.15;nan;95022.91;5078126;28;20291;-72
2022/06/07 08:10:02;;;;;;;14.07;11.23;;;;;;;26.38;nan;95012.16;5078456;28;20286;-72
2022/06/07 08:12:31;;;;;;;13.48;11.25;;;;;;;26.08;nan;95012.47;5078149;28;20208;-73
2022/06/07 08:14:58;;;;;;;11.88;10.75;;;;;;;25.65;nan;94995.72;5078407;28;20216;-71
2022/06/07 08:17:25;;;;;;;9.68;8.88;;;;;;;25.90;nan;94998.59;5078832;28;20220;-72
2022/06/07 08:19:52;;;;;;;13.35;10.18;;;;;;;25.66;nan;95007.78;5077462;28;20201;-70
2022/06/07 08:22:19;;;;;;;17.92;15.27;;;;;;;26.28;nan;94995.72;5075129;28;20255;-70
2022/06/07 08:24:46;;;;;;;17.40;14.48;;;;;;;26.76;nan;94987.53;5077953;28;20233;-72
2022/06/07 08:27:13;;;;;;;34.72;25.88;;;;;;;27.05;nan;94986.47;5078507;28;20662;-72
2022/06/07 08:29:44;;;;;;;23.38;15.48;;;;;;;26.93;nan;94983.28;5078297;28;20210;-71
2022/06/07 08:32:11;;;;;;;15.18;13.05;;;;;;;26.86;nan;94982.25;5072228;28;20275;-72
2022/06/07 08:37:36;;;;;;;10.27;7.20;;;;;;;27.23;nan;94983.78;5073213;28;21180;-71
2022/06/07 08:40:06;;;;;;;6.47;5.88;;;;;;;26.69;nan;94975.28;5073386;28;20217;-71
2022/06/07 08:42:36;;;;;;;6.50;5.82;;;;;;;26.29;nan;94979.13;5073320;28;20656;-71
2022/06/07 08:45:07;;;;;;;5.95;5.13;;;;;;;26.37;nan;94981.84;5071616;28;20735;-70
2022/06/07 08:47:39;;;;;;;5.57;5.07;;;;;;;26.40;nan;94978.94;5074308;28;20286;-72
2022/06/07 08:50:17;;;;;;;10.30;4.40;;;;;;;26.39;nan;94977.31;5073226;28;20665;-72
2022/06/07 08:52:45;;;;;;;4.00;3.63;;;;;;;26.35;nan;94973.38;5074511;28;20661;-71
2022/06/07 08:55:19;;;;;;;9.93;4.18;;;;;;;26.27;nan;94970.66;5073925;28;20233;-71
2022/06/07 08:57:55;;;;;;;4.65;4.32;;;;;;;26.60;nan;94961.34;5074811;28;20718;-72
2022/06/07 09:00:26;;;;;;;4.07;3.78;;;;;;;26.39;nan;94963.47;5074448;28;20730;-72
2022/06/07 09:03:20;;;;;;;4.57;4.22;;;;;;;25.61;nan;94952.69;5073906;28;21028;-70
2022/06/07 09:05:52;;;;;;;5.20;4.15;;;;;;;25.38;nan;94954.03;5074009;28;20679;-71
2022/06/07 09:08:19;;;;;;;5.72;4.18;;;;;;;25.08;nan;94960.31;5074712;28;20277;-71
2022/06/07 09:13:35;;;;;;;4.45;4.10;;;;;;;26.03;nan;94941.75;5074571;28;20212;-71
2022/06/07 09:16:05;;;;;;;6.68;3.90;;;;;;;25.84;nan;94932.31;5073628;28;20672;-71
2022/06/07 09:18:33;;;;;;;6.28;4.10;;;;;;;25.97;nan;94940.59;5077447;28;20202;-72
2022/06/07 09:21:06;;;;;;;3.78;3.50;;;;;;;25.35;nan;94942.16;5077474;28;20597;-72
2022/06/07 09:23:37;;;;;;;3.78;3.58;;;;;;;25.19;nan;94941.13;5076394;28;20790;-71
2022/06/07 09:26:20;;;;;;;5.30;3.47;;;;;;;25.29;nan;94939.28;5076176;28;20930;-72
2022/06/07 09:28:49;;;;;;;5.00;3.95;;;;;;;25.46;nan;94933.34;5077587;28;20210;-70
2022/06/07 09:31:21;;;;;;;4.57;4.10;;;;;;;25.99;nan;94924.78;5077601;28;20286;-72
2022/06/07 09:33:52;;;;;;;4.43;4.13;;;;;;;26.46;nan;94928.03;5076161;28;20201;-72
2022/06/07 09:36:22;;;;;;;4.20;3.90;;;;;;;26.61;nan;94928.28;5077719;28;20778;-72
2022/06/07 09:38:53;;;;;;;7.55;3.72;;;;;;;25.82;nan;94925.63;5077205;28;20983;-71
2022/06/07 09:41:40;;;;;;;4.32;4.03;;;;;;;25.49;nan;94911.41;5077397;28;20267;-71
2022/06/07 09:44:20;;;;;;;3.92;3.50;;;;;;;26.13;nan;94926.91;5077439;28;20690;-71
2022/06/07 09:46:52;;;;;;;4.55;4.15;;;;;;;26.75;nan;94912.09;5077922;28;20206;-72
2022/06/07 09:49:28;;;;;;;4.00;3.72;;;;;;;26.63;nan;94921.13;5077087;28;20201;-73
2022/06/07 09:51:57;;;;;;;3.80;3.50;;;;;;;26.34;nan;94914.41;5077359;28;21256;-72
2022/06/07 09:54:23;;;;;;;4.55;4.28;;;;;;;25.94;nan;94906.22;5077668;28;20209;-71
2022/06/07 09:57:01;;;;;;;4.57;4.07;;;;;;;26.34;nan;94903.97;5077896;28;20193;-71
2022/06/07 09:59:43;;;;;;;5.07;3.88;;;;;;;26.68;nan;94900.66;5077266;28;20596;-71
2022/06/07 10:02:50;;;;;;;4.00;3.80;;;;;;;26.73;nan;94903.59;5077036;28;20237;-71
2022/06/07 10:05:25;;;;;;;3.80;3.60;;;;;;;26.63;nan;94893.28;5077072;28;20228;-71
2022/06/07 10:08:00;;;;;;;3.70;3.47;;;;;;;26.31;nan;94898.25;5077182;28;20208;-71
2022/06/07 10:10:35;;;;;;;5.57;5.18;;;;;;;26.25;nan;94894.44;5076900;28;20599;-70
2022/06/07 10:13:13;;;;;;;4.70;4.20;;;;;;;26.56;nan;94891.44;5077101;28;20202;-70
2022/06/07 10:15:47;;;;;;;4.53;4.13;;;;;;;26.82;nan;94887.03;5077056;28;20651;-70
2022/06/07 10:18:25;;;;;;;4.50;4.10;;;;;;;26.82;nan;94876.59;5077019;28;20206;-71
2022/06/07 10:21:16;;;;;;;8.20;4.50;;;;;;;27.04;nan;94878.72;5075805;28;20286;-71
2022/06/07 10:24:12;;;;;;;4.10;3.80;;;;;;;27.08;nan;94881.81;5076754;28;20209;-71
2022/06/07 10:26:57;;;;;;;7.30;4.20;;;;;;;27.14;nan;94876.00;5077501;28;20313;-70
2022/06/07 10:29:40;;;;;;;4.53;4.30;;;;;;;26.53;nan;94865.66;5075499;28;20302;-71
2022/06/07 10:32:18;;;;;;;5.55;3.85;;;;;;;27.32;nan;94866.28;5076729;28;20225;-70
2022/06/07 10:34:53;;;;;;;6.68;4.32;;;;;;;27.00;nan;94869.56;5076243;28;20205;-71
2022/06/07 10:37:31;;;;;;;3.70;3.45;;;;;;;26.49;nan;94872.16;5076668;28;20292;-70
2022/06/07 10:40:11;;;;;;;4.15;3.85;;;;;;;26.37;nan;94872.41;5076350;28;20781;-70
2022/06/07 10:42:46;;;;;;;5.28;4.97;;;;;;;26.54;nan;94857.72;5076342;28;20233;-70
2022/06/07 10:45:19;;;;;;;4.50;4.13;;;;;;;26.88;nan;94854.31;5076126;28;20248;-70
2022/06/07 10:47:56;;;;;;;5.20;3.85;;;;;;;26.55;nan;94854.13;5076408;28;20326;-69
2022/06/07 10:50:29;;;;;;;7.78;4.38;;;;;;;26.13;nan;94847.94;5075011;28;20969;-71
2022/06/07 10:53:05;;;;;;;4.03;3.75;;;;;;;25.92;nan;94846.47;5076271;28;20209;-70
2022/06/07 10:55:37;;;;;;;4.55;4.25;;;;;;;26.07;nan;94844.97;5076072;28;20201;-70
2022/06/07 10:58:18;;;;;;;4.40;4.00;;;;;;;26.03;nan;94842.81;5076389;28;20247;-72
2022/06/07 11:00:51;;;;;;;4.53;4.28;;;;;;;25.89;nan;94840.75;5075277;28;20693;-71
2022/06/07 11:03:28;;;;;;;5.18;4.07;;;;;;;25.67;nan;94842.84;5076400;28;20210;-69
2022/06/07 11:11:42;;;;;;;4.47;4.18;;;;;;;25.04;nan;94834.97;5076072;28;20279;-69
2022/06/07 11:14:34;;;;;;;4.35;4.00;;;;;;;25.18;nan;94827.66;5075669;28;20216;-69
2022/06/07 11:17:08;;;;;;;3.72;3.42;;;;;;;25.53;nan;94835.50;5075524;28;20615;-68
2022/06/07 11:19:35;;;;;;;4.22;3.92;;;;;;;25.97;nan;94830.41;5075476;28;20695;-69
2022/06/07 11:22:06;;;;;;;137.52;83.03;;;;;;;26.27;nan;94832.56;5075409;28;20233;-69
2022/06/07 11:24:35;;;;;;;7.70;6.30;;;;;;;26.49;nan;94827.84;5075361;28;20205;-69
2022/06/07 11:27:21;;;;;;;4.25;3.92;;;;;;;27.02;nan;94836.31;5075924;28;20205;-70
2022/06/07 11:29:48;;;;;;;3.22;3.03;;;;;;;26.63;nan;94819.47;5075269;28;20251;-69
2022/06/07 11:32:39;;;;;;;3.92;3.72;;;;;;;26.21;nan;94830.59;5075258;28;20667;-69
2022/06/07 11:35:43;;;;;;;5.88;3.47;;;;;;;25.39;nan;94828.22;5075015;28;20190;-70
2022/06/07 11:38:28;;;;;;;4.22;3.28;;;;;;;25.66;nan;94825.59;5075913;28;20280;-72
2022/06/07 11:43:56;;;;;;;3.97;3.63;;;;;;;25.94;nan;94812.50;5074654;28;20246;-71
2022/06/07 11:46:25;;;;;;;5.07;3.33;;;;;;;26.36;nan;94808.25;5075643;28;20202;-71
2022/06/07 11:48:53;;;;;;;6.03;3.92;;;;;;;26.55;nan;94806.41;5074926;28;20667;-71
2022/06/07 11:51:22;;;;;;;7.15;3.80;;;;;;;26.32;nan;94800.88;5075166;28;20202;-71
2022/06/07 11:54:01;;;;;;;4.18;3.22;;;;;;;25.75;nan;94803.03;5074922;28;20593;-71
2022/06/07 11:56:34;;;;;;;3.65;3.38;;;;;;;25.82;nan;94798.06;5075072;28;20212;-72
2022/06/07 11:59:04;;;;;;;3.92;3.63;;;;;;;25.96;nan;94787.13;5074956;28;20210;-71
2022/06/07 12:01:37;;;;;;;5.78;3.25;;;;;;;26.13;nan;94786.25;5074669;28;20257;-72
2022/06/07 12:04:28;;;;;;;3.65;3.45;;;;;;;25.98;nan;94787.78;5075641;28;20193;-71
2022/06/07 12:06:57;;;;;;;4.68;3.53;;;;;;;26.06;nan;94783.44;5074445;28;20201;-69
2022/06/07 12:09:26;;;;;;;3.35;3.15;;;;;;;25.99;nan;94784.19;5075421;28;20201;-70
2022/06/07 12:11:53;;;;;;;4.20;3.65;;;;;;;26.01;nan;94780.47;5074618;28;20203;-69
2022/06/07 12:14:37;;;;;;;3.72;3.53;;;;;;;26.35;nan;94782.34;5075165;28;20201;-69
2022/06/07 12:17:20;;;;;;;3.80;3.58;;;;;;;26.36;nan;94771.78;5074726;28;20225;-71
2022/06/07 12:19:48;;;;;;;4.53;3.83;;;;;;;26.35;nan;94767.53;5074534;28;20290;-70
2022/06/07 12:22:18;;;;;;;3.92;3.72;;;;;;;26.19;nan;94764.81;5075327;28;20264;-70
2022/06/07 12:24:50;;;;;;;4.10;3.65;;;;;;;26.56;nan;94767.16;5074272;28;20228;-70